createdAt,value
2018-09-23T00:00:47.844Z,16.72
2018-09-23T00:01:47.886Z,16.65
2018-09-23T00:02:47.828Z,16.68
2018-09-23T00:03:47.880Z,16.68
2018-09-23T00:04:47.866Z,16.72
2018-09-23T00:05:47.903Z,16.68
2018-09-23T00:06:47.903Z,16.69
2018-09-23T00:07:47.921Z,16.72
2018-09-23T00:08:47.908Z,16.66
2018-09-23T00:09:47.958Z,16.69
2018-09-23T00:10:47.915Z,16.64
2018-09-23T00:11:47.920Z,16.61
2018-09-23T00:12:47.926Z,16.64
2018-09-23T00:13:47.934Z,16.57
2018-09-23T00:14:47.942Z,16.55
2018-09-23T00:15:47.960Z,16.51
2018-09-23T00:16:48.014Z,16.55
2018-09-23T00:17:47.968Z,16.54
2018-09-23T00:18:47.964Z,16.55
2018-09-23T00:19:47.999Z,16.58
2018-09-23T00:20:48.044Z,16.40
2018-09-23T00:21:48.010Z,16.43
2018-09-23T00:22:48.025Z,16.46
2018-09-23T00:23:48.059Z,16.34
2018-09-23T00:24:48.084Z,16.37
2018-09-23T00:25:48.184Z,16.34
2018-09-23T00:26:48.034Z,16.29
2018-09-23T00:27:48.055Z,16.37
2018-09-23T00:28:48.399Z,16.41
2018-09-23T00:29:48.068Z,16.36
2018-09-23T00:30:48.126Z,16.26
2018-09-23T00:31:48.124Z,16.25
2018-09-23T00:32:48.122Z,16.25
2018-09-23T00:33:48.140Z,16.26
2018-09-23T00:34:48.156Z,16.22
2018-09-23T00:35:48.125Z,16.10
2018-09-23T00:36:48.158Z,16.22
2018-09-23T00:37:48.156Z,16.17
2018-09-23T00:38:48.167Z,16.09
2018-09-23T00:39:48.222Z,16.08
2018-09-23T00:40:48.173Z,15.98
2018-09-23T00:41:48.246Z,16.02
2018-09-23T00:42:48.238Z,15.96
2018-09-23T00:43:48.218Z,16.00
2018-09-23T00:44:48.212Z,16.00
2018-09-23T00:45:48.212Z,15.92
2018-09-23T00:46:48.245Z,16.03
2018-09-23T00:47:48.255Z,15.94
2018-09-23T00:48:48.286Z,15.92
2018-09-23T00:49:48.237Z,15.96
2018-09-23T00:50:48.298Z,15.98
2018-09-23T00:51:48.266Z,15.88
2018-09-23T00:52:48.306Z,15.94
2018-09-23T00:53:48.330Z,15.99
2018-09-23T00:54:48.289Z,15.96
2018-09-23T00:55:48.301Z,15.99
2018-09-23T00:56:48.340Z,16.06
2018-09-23T00:57:48.356Z,16.09
2018-09-23T00:58:48.342Z,15.96
2018-09-23T00:59:48.361Z,16.09
2018-09-23T01:00:48.345Z,16.05
2018-09-23T01:01:48.385Z,16.06
2018-09-23T01:02:48.367Z,16.05
2018-09-23T01:03:48.374Z,15.99
2018-09-23T01:04:48.434Z,16.05
2018-09-23T01:05:48.404Z,16.05
2018-09-23T01:06:48.456Z,16.02
2018-09-23T01:07:48.395Z,16.02
2018-09-23T01:08:48.414Z,16.00
2018-09-23T01:09:48.426Z,15.91
2018-09-23T01:10:48.431Z,16.00
2018-09-23T01:11:48.466Z,15.96
2018-09-23T01:12:48.479Z,15.98
2018-09-23T01:13:48.463Z,15.90
2018-09-23T01:14:48.494Z,15.85
2018-09-23T01:15:48.463Z,15.85
2018-09-23T01:16:48.522Z,15.91
2018-09-23T01:17:48.541Z,15.85
2018-09-23T01:18:48.494Z,15.80
2018-09-23T01:19:48.504Z,15.80
2018-09-23T01:20:48.508Z,15.81
2018-09-23T01:21:48.514Z,15.81
2018-09-23T01:22:48.562Z,15.78
2018-09-23T01:23:48.559Z,15.85
2018-09-23T01:24:48.574Z,15.78
2018-09-23T01:25:48.599Z,15.85
2018-09-23T01:26:48.565Z,15.85
2018-09-23T01:27:48.566Z,15.83
2018-09-23T01:28:48.600Z,15.85
2018-09-23T01:29:48.588Z,15.84
2018-09-23T01:30:48.595Z,15.75
2018-09-23T01:31:48.622Z,15.83
2018-09-23T01:32:48.605Z,15.76
2018-09-23T01:33:48.665Z,15.76
2018-09-23T01:34:48.640Z,15.76
2018-09-23T01:35:48.643Z,15.80
2018-09-23T01:36:48.659Z,15.78
2018-09-23T01:37:48.665Z,15.69
2018-09-23T01:38:48.659Z,15.69
2018-09-23T01:39:48.721Z,15.67
2018-09-23T01:40:48.724Z,15.67
2018-09-23T01:41:48.688Z,15.57
2018-09-23T01:42:48.734Z,15.65
2018-09-23T01:43:48.736Z,15.65
2018-09-23T01:44:48.716Z,15.63
2018-09-23T01:45:48.720Z,15.70
2018-09-23T01:46:48.781Z,15.66
2018-09-23T01:47:48.753Z,15.65
2018-09-23T01:48:48.775Z,15.63
2018-09-23T01:49:48.792Z,15.62
2018-09-23T01:50:48.797Z,15.52
2018-09-23T01:51:48.775Z,15.57
2018-09-23T01:52:48.796Z,15.52
2018-09-23T01:53:48.812Z,15.63
2018-09-23T01:54:48.824Z,15.59
2018-09-23T01:55:48.826Z,15.65
2018-09-23T01:56:48.832Z,15.50
2018-09-23T01:57:48.859Z,15.50
2018-09-23T01:58:48.851Z,15.51
2018-09-23T01:59:48.852Z,15.54
2018-09-23T02:00:48.875Z,15.57
2018-09-23T02:01:48.881Z,15.55
2018-09-23T02:02:48.876Z,15.47
2018-09-23T02:03:48.886Z,15.47
2018-09-23T02:04:48.936Z,15.48
2018-09-23T02:05:48.957Z,15.45
2018-09-23T02:06:48.908Z,15.48
2018-09-23T02:07:48.913Z,15.43
2018-09-23T02:08:48.914Z,15.36
2018-09-23T02:09:48.917Z,15.27
2018-09-23T02:10:48.996Z,15.35
2018-09-23T02:11:48.993Z,15.33
2018-09-23T02:12:48.975Z,15.30
2018-09-23T02:13:48.957Z,15.23
2018-09-23T02:14:48.961Z,15.18
2018-09-23T02:15:49.002Z,15.10
2018-09-23T02:16:49.005Z,15.19
2018-09-23T02:17:48.974Z,15.19
2018-09-23T02:18:48.979Z,15.10
2018-09-23T02:19:49.060Z,15.12
2018-09-23T02:20:49.030Z,15.10
2018-09-23T02:21:49.049Z,15.12
2018-09-23T02:22:49.108Z,15.00
2018-09-23T02:23:49.070Z,15.05
2018-09-23T02:24:49.065Z,15.00
2018-09-23T02:25:49.065Z,15.04
2018-09-23T02:26:49.071Z,15.07
2018-09-23T02:27:49.078Z,15.04
2018-09-23T02:28:49.101Z,14.99
2018-09-23T02:29:49.094Z,14.97
2018-09-23T02:30:49.099Z,15.10
2018-09-23T02:31:49.104Z,15.05
2018-09-23T02:32:49.102Z,14.99
2018-09-23T02:33:49.156Z,15.02
2018-09-23T02:34:49.157Z,15.11
2018-09-23T02:35:49.133Z,15.07
2018-09-23T02:36:49.170Z,15.02
2018-09-23T02:37:49.164Z,15.10
2018-09-23T02:38:49.229Z,15.17
2018-09-23T02:39:49.207Z,15.07
2018-09-23T02:40:49.212Z,15.10
2018-09-23T02:41:49.180Z,15.04
2018-09-23T02:42:49.179Z,15.00
2018-09-23T02:43:49.301Z,15.04
2018-09-23T02:44:49.208Z,15.02
2018-09-23T02:45:49.241Z,14.99
2018-09-23T02:46:49.242Z,15.00
2018-09-23T02:47:49.233Z,15.02
2018-09-23T02:48:49.246Z,15.05
2018-09-23T02:49:49.297Z,15.05
2018-09-23T02:50:49.265Z,15.15
2018-09-23T02:51:49.290Z,15.07
2018-09-23T02:52:49.265Z,15.11
2018-09-23T02:53:49.280Z,15.15
2018-09-23T02:54:49.373Z,15.05
2018-09-23T02:55:49.291Z,15.12
2018-09-23T02:56:49.320Z,15.08
2018-09-23T02:57:49.325Z,15.15
2018-09-23T02:58:49.376Z,15.02
2018-09-23T02:59:49.355Z,15.05
2018-09-23T03:00:49.359Z,15.02
2018-09-23T03:01:49.359Z,15.07
2018-09-23T03:02:49.358Z,15.07
2018-09-23T03:03:49.377Z,15.15
2018-09-23T03:04:49.386Z,15.08
2018-09-23T03:05:49.435Z,15.12
2018-09-23T03:06:49.378Z,15.11
2018-09-23T03:07:49.395Z,15.26
2018-09-23T03:08:49.423Z,15.25
2018-09-23T03:09:49.473Z,15.25
2018-09-23T03:10:49.421Z,15.26
2018-09-23T03:11:49.420Z,15.17
2018-09-23T03:12:49.450Z,15.23
2018-09-23T03:13:49.455Z,15.32
2018-09-23T03:14:49.441Z,15.22
2018-09-23T03:15:49.459Z,15.22
2018-09-23T03:16:49.522Z,15.30
2018-09-23T03:17:49.507Z,15.27
2018-09-23T03:18:49.474Z,15.29
2018-09-23T03:19:49.539Z,15.30
2018-09-23T03:20:49.497Z,15.30
2018-09-23T03:21:49.514Z,15.27
2018-09-23T03:22:49.497Z,15.29
2018-09-23T03:23:49.558Z,15.30
2018-09-23T03:24:49.524Z,15.32
2018-09-23T03:25:50.550Z,15.22
2018-09-23T03:26:49.558Z,15.22
2018-09-23T03:27:49.577Z,15.19
2018-09-23T03:28:49.602Z,15.25
2018-09-23T03:29:49.578Z,15.23
2018-09-23T03:30:49.577Z,15.22
2018-09-23T03:31:49.626Z,15.25
2018-09-23T03:32:49.619Z,15.22
2018-09-23T03:33:49.641Z,15.23
2018-09-23T03:34:49.639Z,15.23
2018-09-23T03:35:49.674Z,15.22
2018-09-23T03:36:49.632Z,15.12
2018-09-23T03:37:49.654Z,15.22
2018-09-23T03:38:49.687Z,15.12
2018-09-23T03:39:49.678Z,15.11
2018-09-23T03:40:49.688Z,15.12
2018-09-23T03:41:49.675Z,15.11
2018-09-23T03:42:49.691Z,15.11
2018-09-23T03:43:49.693Z,15.11
2018-09-23T03:44:49.695Z,15.18
2018-09-23T03:45:49.754Z,15.04
2018-09-23T03:46:49.734Z,14.99
2018-09-23T03:47:49.741Z,14.97
2018-09-23T03:48:49.732Z,14.96
2018-09-23T03:49:49.737Z,15.05
2018-09-23T03:50:49.745Z,15.02
2018-09-23T03:51:49.765Z,15.00
2018-09-23T03:52:49.777Z,15.00
2018-09-23T03:53:49.765Z,14.94
2018-09-23T03:54:49.765Z,14.92
2018-09-23T03:55:49.821Z,15.07
2018-09-23T03:56:49.778Z,15.05
2018-09-23T03:57:49.832Z,14.94
2018-09-23T03:58:49.807Z,14.87
2018-09-23T03:59:49.840Z,14.94
2018-09-23T04:00:49.814Z,14.99
2018-09-23T04:01:49.814Z,14.92
2018-09-23T04:02:49.877Z,14.92
2018-09-23T04:03:49.845Z,15.00
2018-09-23T04:04:49.892Z,14.86
2018-09-23T04:05:49.835Z,14.90
2018-09-23T04:06:49.897Z,14.85
2018-09-23T04:07:49.888Z,14.81
2018-09-23T04:08:49.879Z,14.89
2018-09-23T04:09:49.920Z,14.87
2018-09-23T04:10:49.944Z,14.85
2018-09-23T04:11:49.914Z,14.89
2018-09-23T04:12:49.929Z,14.86
2018-09-23T04:13:49.915Z,14.85
2018-09-23T04:14:49.930Z,14.92
2018-09-23T04:15:49.924Z,14.81
2018-09-23T04:16:49.960Z,14.89
2018-09-23T04:17:49.963Z,14.89
2018-09-23T04:18:49.983Z,14.85
2018-09-23T04:19:49.976Z,14.93
2018-09-23T04:20:49.977Z,14.93
2018-09-23T04:21:50.043Z,14.77
2018-09-23T04:22:50.006Z,14.85
2018-09-23T04:23:50.073Z,14.78
2018-09-23T04:24:50.013Z,14.89
2018-09-23T04:25:50.029Z,14.82
2018-09-23T04:26:50.024Z,14.87
2018-09-23T04:27:50.057Z,14.89
2018-09-23T04:28:50.033Z,14.92
2018-09-23T04:29:50.061Z,14.94
2018-09-23T04:30:50.055Z,14.87
2018-09-23T04:31:50.118Z,14.79
2018-09-23T04:32:50.085Z,14.89
2018-09-23T04:33:50.117Z,14.82
2018-09-23T04:34:50.082Z,14.92
2018-09-23T04:35:50.103Z,14.93
2018-09-23T04:36:50.105Z,14.89
2018-09-23T04:37:50.111Z,14.94
2018-09-23T04:38:50.163Z,14.99
2018-09-23T04:39:50.178Z,15.00
2018-09-23T04:40:50.134Z,15.00
2018-09-23T04:41:50.160Z,15.08
2018-09-23T04:42:50.173Z,14.94
2018-09-23T04:43:50.182Z,15.00
2018-09-23T04:44:50.214Z,14.92
2018-09-23T04:45:50.153Z,14.97
2018-09-23T04:46:50.211Z,14.97
2018-09-23T04:47:50.171Z,14.92
2018-09-23T04:48:50.229Z,15.02
2018-09-23T04:49:50.228Z,15.05
2018-09-23T04:50:50.227Z,15.07
2018-09-23T04:51:50.256Z,15.07
2018-09-23T04:52:50.235Z,15.10
2018-09-23T04:53:50.244Z,15.02
2018-09-23T04:54:50.251Z,15.05
2018-09-23T04:55:50.258Z,15.08
2018-09-23T04:56:50.284Z,15.00
2018-09-23T04:57:50.270Z,15.02
2018-09-23T04:58:50.289Z,15.04
2018-09-23T04:59:50.283Z,14.97
2018-09-23T05:00:50.313Z,15.07
2018-09-23T05:01:50.337Z,15.12
2018-09-23T05:02:50.304Z,15.07
2018-09-23T05:03:50.324Z,15.08
2018-09-23T05:04:50.362Z,15.08
2018-09-23T05:05:50.355Z,15.17
2018-09-23T05:06:50.342Z,15.19
2018-09-23T05:07:50.342Z,15.18
2018-09-23T05:08:50.563Z,15.23
2018-09-23T05:09:50.368Z,15.23
2018-09-23T05:10:50.384Z,15.08
2018-09-23T05:11:50.389Z,15.08
2018-09-23T05:12:50.487Z,15.23
2018-09-23T05:13:50.488Z,15.10
2018-09-23T05:14:50.510Z,15.23
2018-09-23T05:15:50.439Z,15.26
2018-09-23T05:16:50.427Z,15.22
2018-09-23T05:17:50.429Z,15.17
2018-09-23T05:18:50.491Z,15.27
2018-09-23T05:19:50.456Z,15.33
2018-09-23T05:20:50.454Z,15.26
2018-09-23T05:21:50.490Z,15.33
2018-09-23T05:22:50.497Z,15.33
2018-09-23T05:23:50.565Z,15.33
2018-09-23T05:24:50.524Z,15.30
2018-09-23T05:25:50.507Z,15.35
2018-09-23T05:26:50.526Z,15.32
2018-09-23T05:27:50.524Z,15.36
2018-09-23T05:28:50.534Z,15.37
2018-09-23T05:29:50.558Z,15.43
2018-09-23T05:30:50.592Z,15.44
2018-09-23T05:31:50.549Z,15.48
2018-09-23T05:32:50.564Z,15.50
2018-09-23T05:33:50.596Z,15.50
2018-09-23T05:34:50.557Z,15.50
2018-09-23T05:35:50.591Z,15.59
2018-09-23T05:36:50.612Z,15.52
2018-09-23T05:37:50.600Z,15.59
2018-09-23T05:38:50.600Z,15.55
2018-09-23T05:39:50.611Z,15.60
2018-09-23T05:40:50.649Z,15.57
2018-09-23T05:41:50.631Z,15.59
2018-09-23T05:42:50.632Z,15.67
2018-09-23T05:43:50.703Z,15.66
2018-09-23T05:44:50.653Z,15.65
2018-09-23T05:45:50.680Z,15.69
2018-09-23T05:46:50.660Z,15.69
2018-09-23T05:47:50.681Z,15.67
2018-09-23T05:48:50.678Z,15.66
2018-09-23T05:49:50.734Z,15.63
2018-09-23T05:50:50.726Z,15.75
2018-09-23T05:51:50.729Z,15.69
2018-09-23T05:52:50.705Z,15.76
2018-09-23T05:53:50.715Z,15.81
2018-09-23T05:54:51.056Z,15.87
2018-09-23T05:55:50.866Z,15.90
2018-09-23T05:56:50.749Z,15.81
2018-09-23T05:57:50.801Z,15.85
2018-09-23T05:58:50.890Z,15.98
2018-09-23T05:59:50.798Z,15.98
2018-09-23T06:00:50.824Z,16.00
2018-09-23T06:01:50.799Z,16.05
2018-09-23T06:02:50.988Z,16.13
2018-09-23T06:03:50.807Z,16.16
2018-09-23T06:04:50.888Z,16.17
2018-09-23T06:05:50.872Z,16.22
2018-09-23T06:06:50.839Z,16.24
2018-09-23T06:07:50.858Z,16.26
2018-09-23T06:08:50.917Z,16.26
2018-09-23T06:09:50.875Z,16.29
2018-09-23T06:10:50.885Z,16.28
2018-09-23T06:11:50.926Z,16.29
2018-09-23T06:12:50.874Z,16.32
2018-09-23T06:13:51.017Z,16.43
2018-09-23T06:14:50.897Z,16.47
2018-09-23T06:15:50.945Z,16.40
2018-09-23T06:16:50.917Z,16.44
2018-09-23T06:17:50.961Z,16.50
2018-09-23T06:18:51.175Z,16.58
2018-09-23T06:19:50.933Z,16.54
2018-09-23T06:20:50.966Z,16.55
2018-09-23T06:21:50.988Z,16.55
2018-09-23T06:22:51.016Z,16.62
2018-09-23T06:23:51.074Z,16.64
2018-09-23T06:24:51.000Z,16.76
2018-09-23T06:25:51.105Z,16.74
2018-09-23T06:26:51.014Z,16.69
2018-09-23T06:27:51.032Z,16.73
2018-09-23T06:28:51.027Z,16.72
2018-09-23T06:29:51.041Z,16.76
2018-09-23T06:30:51.051Z,16.82
2018-09-23T06:31:51.094Z,16.83
2018-09-23T06:32:51.059Z,16.76
2018-09-23T06:33:51.144Z,16.83
2018-09-23T06:34:51.111Z,16.83
2018-09-23T06:35:51.122Z,16.83
2018-09-23T06:36:51.095Z,16.87
2018-09-23T06:37:51.088Z,16.91
2018-09-23T06:38:51.211Z,16.92
2018-09-23T06:39:51.156Z,16.92
2018-09-23T06:40:51.119Z,16.92
2018-09-23T06:41:51.147Z,17.04
2018-09-23T06:42:51.134Z,17.02
2018-09-23T06:43:51.209Z,17.07
2018-09-23T06:44:51.197Z,17.14
2018-09-23T06:45:51.233Z,17.09
2018-09-23T06:46:51.194Z,17.14
2018-09-23T06:47:51.215Z,17.24
2018-09-23T06:48:51.216Z,17.19
2018-09-23T06:49:51.254Z,17.22
2018-09-23T06:50:51.245Z,17.28
2018-09-23T06:51:51.242Z,17.32
2018-09-23T06:52:51.259Z,17.32
2018-09-23T06:53:51.236Z,17.34
2018-09-23T06:54:51.264Z,17.34
2018-09-23T06:55:51.325Z,17.32
2018-09-23T06:56:51.325Z,17.34
2018-09-23T06:57:51.309Z,17.23
2018-09-23T06:58:51.300Z,17.46
2018-09-23T06:59:51.303Z,17.50
2018-09-23T07:00:51.321Z,17.50
2018-09-23T07:01:51.346Z,17.47
2018-09-23T07:02:51.344Z,17.49
2018-09-23T07:03:51.369Z,17.56
2018-09-23T07:04:51.379Z,17.60
2018-09-23T07:05:51.366Z,17.59
2018-09-23T07:06:51.361Z,17.53
2018-09-23T07:07:51.390Z,17.69
2018-09-23T07:08:51.406Z,17.65
2018-09-23T07:09:51.423Z,17.75
2018-09-23T07:10:51.461Z,17.71
2018-09-23T07:11:51.424Z,17.79
2018-09-23T07:12:51.512Z,17.79
2018-09-23T07:13:51.440Z,17.80
2018-09-23T07:14:51.457Z,17.84
2018-09-23T07:15:51.480Z,17.87
2018-09-23T07:16:51.464Z,17.98
2018-09-23T07:17:51.507Z,17.97
2018-09-23T07:18:51.531Z,18.03
2018-09-23T07:19:51.547Z,17.97
2018-09-23T07:20:51.540Z,18.06
2018-09-23T07:21:51.549Z,18.05
2018-09-23T07:22:51.574Z,17.97
2018-09-23T07:23:51.690Z,18.05
2018-09-23T07:24:51.543Z,18.05
2018-09-23T07:25:51.531Z,18.02
2018-09-23T07:26:51.616Z,18.00
2018-09-23T07:27:51.681Z,18.03
2018-09-23T07:28:51.582Z,18.09
2018-09-23T07:29:51.624Z,18.08
2018-09-23T07:30:51.644Z,18.05
2018-09-23T07:31:51.816Z,18.08
2018-09-23T07:32:51.622Z,17.97
2018-09-23T07:33:51.661Z,18.03
2018-09-23T07:34:51.650Z,18.02
2018-09-23T07:35:51.639Z,17.90
2018-09-23T07:36:51.715Z,18.02
2018-09-23T07:37:51.734Z,18.06
2018-09-23T07:38:51.682Z,17.98
2018-09-23T07:39:51.804Z,17.94
2018-09-23T07:40:51.700Z,18.02
2018-09-23T07:41:51.735Z,18.03
2018-09-23T07:42:51.712Z,18.06
2018-09-23T07:43:51.751Z,18.09
2018-09-23T07:44:51.736Z,18.02
2018-09-23T07:45:51.751Z,18.11
2018-09-23T07:46:51.742Z,18.00
2018-09-23T07:47:51.760Z,18.00
2018-09-23T07:48:51.821Z,18.06
2018-09-23T07:49:51.782Z,18.21
2018-09-23T07:50:51.783Z,18.15
2018-09-23T07:51:51.810Z,18.24
2018-09-23T07:52:51.815Z,18.26
2018-09-23T07:53:51.835Z,18.19
2018-09-23T07:54:51.875Z,18.27
2018-09-23T07:55:51.891Z,18.24
2018-09-23T07:56:51.881Z,18.27
2018-09-23T07:57:51.866Z,18.23
2018-09-23T07:58:51.881Z,18.26
2018-09-23T07:59:51.933Z,18.34
2018-09-23T08:00:51.885Z,18.27
2018-09-23T08:01:51.938Z,18.36
2018-09-23T08:02:52.461Z,18.33
2018-09-23T08:03:51.905Z,18.36
2018-09-23T08:04:51.927Z,18.36
2018-09-23T08:05:51.973Z,18.37
2018-09-23T08:06:52.029Z,18.37
2018-09-23T08:07:51.958Z,18.49
2018-09-23T08:08:51.953Z,18.45
2018-09-23T08:09:51.968Z,18.46
2018-09-23T08:10:52.184Z,18.49
2018-09-23T08:11:52.008Z,18.52
2018-09-23T08:12:52.213Z,18.55
2018-09-23T08:13:52.271Z,18.58
2018-09-23T08:14:52.488Z,18.57
2018-09-23T08:15:52.033Z,18.52
2018-09-23T08:16:52.060Z,18.63
2018-09-23T08:17:52.159Z,18.60
2018-09-23T08:18:52.051Z,18.66
2018-09-23T08:19:52.225Z,18.70
2018-09-23T08:20:52.094Z,18.66
2018-09-23T08:21:52.148Z,18.67
2018-09-23T08:22:52.128Z,18.79
2018-09-23T08:23:52.303Z,18.73
2018-09-23T08:24:52.210Z,18.78
2018-09-23T08:25:52.140Z,18.79
2018-09-23T08:26:52.235Z,18.82
2018-09-23T08:27:52.167Z,18.86
2018-09-23T08:28:52.241Z,18.91
2018-09-23T08:29:52.152Z,18.94
2018-09-23T08:30:52.169Z,19.00
2018-09-23T08:31:52.238Z,19.05
2018-09-23T08:32:52.253Z,19.11
2018-09-23T08:33:52.244Z,19.19
2018-09-23T08:34:52.277Z,19.11
2018-09-23T08:35:52.401Z,19.17
2018-09-23T08:36:52.241Z,19.22
2018-09-23T08:37:52.256Z,19.22
2018-09-23T08:38:52.249Z,19.32
2018-09-23T08:39:52.338Z,19.42
2018-09-23T08:40:52.495Z,19.35
2018-09-23T08:41:52.314Z,19.37
2018-09-23T08:42:52.670Z,19.37
2018-09-23T08:43:52.314Z,19.39
2018-09-23T08:44:52.305Z,19.44
2018-09-23T08:45:52.346Z,19.47
2018-09-23T08:46:52.461Z,19.45
2018-09-23T08:47:52.603Z,19.45
2018-09-23T08:48:52.390Z,19.47
2018-09-23T08:49:52.478Z,19.42
2018-09-23T08:50:52.422Z,19.44
2018-09-23T08:51:52.457Z,19.44
2018-09-23T08:52:52.514Z,19.47
2018-09-23T08:53:52.496Z,19.35
2018-09-23T08:54:52.532Z,19.38
2018-09-23T08:55:52.490Z,19.37
2018-09-23T08:56:52.473Z,19.44
2018-09-23T08:57:52.542Z,19.35
2018-09-23T08:58:52.495Z,19.37
2018-09-23T08:59:52.514Z,19.34
2018-09-23T09:00:52.523Z,19.38
2018-09-23T09:01:52.515Z,19.30
2018-09-23T09:02:52.541Z,19.39
2018-09-23T09:03:52.570Z,19.41
2018-09-23T09:04:52.591Z,19.47
2018-09-23T09:05:52.539Z,19.45
2018-09-23T09:06:52.799Z,19.44
2018-09-23T09:07:52.597Z,19.47
2018-09-23T09:08:52.593Z,19.52
2018-09-23T09:09:52.595Z,19.52
2018-09-23T09:10:52.588Z,19.53
2018-09-23T09:11:52.699Z,19.63
2018-09-23T09:12:52.654Z,19.60
2018-09-23T09:13:52.627Z,19.57
2018-09-23T09:14:52.653Z,19.67
2018-09-23T09:15:52.713Z,19.60
2018-09-23T09:16:52.660Z,19.72
2018-09-23T09:17:52.702Z,19.75
2018-09-23T09:18:52.969Z,19.67
2018-09-23T09:19:52.694Z,19.74
2018-09-23T09:20:52.696Z,19.70
2018-09-23T09:21:52.755Z,19.74
2018-09-23T09:22:52.703Z,19.75
2018-09-23T09:23:52.745Z,19.79
2018-09-23T09:24:52.830Z,19.72
2018-09-23T09:25:52.790Z,19.74
2018-09-23T09:26:52.805Z,19.67
2018-09-23T09:27:52.780Z,19.81
2018-09-23T09:28:52.810Z,19.81
2018-09-23T09:29:52.842Z,19.84
2018-09-23T09:30:52.966Z,19.94
2018-09-23T09:31:52.816Z,19.82
2018-09-23T09:32:52.825Z,19.82
2018-09-23T09:33:52.844Z,19.90
2018-09-23T09:34:52.885Z,20.02
2018-09-23T09:35:53.124Z,19.92
2018-09-23T09:36:52.888Z,20.07
2018-09-23T09:37:53.082Z,20.03
2018-09-23T09:38:52.885Z,20.11
2018-09-23T09:39:52.917Z,20.00
2018-09-23T09:40:52.911Z,19.97
2018-09-23T09:41:52.957Z,19.97
2018-09-23T09:42:52.967Z,20.04
2018-09-23T09:43:52.956Z,20.08
2018-09-23T09:44:52.988Z,20.10
2018-09-23T09:45:52.949Z,20.11
2018-09-23T09:46:52.966Z,20.17
2018-09-23T09:47:52.986Z,20.14
2018-09-23T09:48:53.005Z,20.12
2018-09-23T09:49:53.047Z,20.07
2018-09-23T09:50:53.232Z,20.11
2018-09-23T09:51:53.026Z,20.03
2018-09-23T09:52:53.056Z,20.11
2018-09-23T09:53:53.082Z,20.11
2018-09-23T09:54:53.070Z,20.08
2018-09-23T09:55:53.142Z,20.21
2018-09-23T09:56:53.092Z,20.22
2018-09-23T09:57:53.143Z,20.18
2018-09-23T09:58:53.148Z,20.24
2018-09-23T09:59:53.192Z,20.24
2018-09-23T10:00:53.150Z,20.21
2018-09-23T10:01:53.183Z,20.22
2018-09-23T10:02:53.219Z,20.42
2018-09-23T10:03:53.409Z,20.32
2018-09-23T10:04:54.099Z,20.32
2018-09-23T10:05:53.175Z,20.42
2018-09-23T10:06:53.209Z,20.40
2018-09-23T10:07:53.207Z,20.52
2018-09-23T10:08:53.598Z,20.46
2018-09-23T10:09:53.248Z,20.52
2018-09-23T10:10:53.266Z,20.56
2018-09-23T10:11:53.265Z,20.56
2018-09-23T10:12:53.311Z,20.50
2018-09-23T10:13:53.296Z,20.58
2018-09-23T10:14:53.310Z,20.59
2018-09-23T10:15:53.308Z,20.67
2018-09-23T10:16:53.319Z,20.71
2018-09-23T10:17:53.354Z,20.67
2018-09-23T10:18:53.950Z,20.78
2018-09-23T10:19:53.349Z,20.80
2018-09-23T10:20:53.367Z,20.78
2018-09-23T10:21:53.371Z,20.75
2018-09-23T10:22:53.868Z,20.88
2018-09-23T10:23:53.413Z,20.90
2018-09-23T10:24:53.438Z,21.00
2018-09-23T10:25:53.431Z,20.92
2018-09-23T10:26:53.447Z,20.93
2018-09-23T10:27:53.432Z,21.07
2018-09-23T10:28:53.469Z,21.08
2018-09-23T10:29:53.453Z,21.04
2018-09-23T10:30:53.649Z,21.04
2018-09-23T10:31:53.577Z,21.14
2018-09-23T10:32:53.480Z,21.14
2018-09-23T10:33:53.541Z,21.23
2018-09-23T10:34:53.533Z,21.13
2018-09-23T10:35:53.608Z,21.17
2018-09-23T10:36:53.583Z,21.25
2018-09-23T10:37:53.534Z,21.23
2018-09-23T10:38:53.603Z,21.28
2018-09-23T10:39:53.565Z,21.26
2018-09-23T10:40:53.582Z,21.35
2018-09-23T10:41:53.601Z,21.35
2018-09-23T10:42:53.657Z,21.40
2018-09-23T10:43:53.631Z,21.45
2018-09-23T10:44:53.650Z,21.41
2018-09-23T10:45:53.735Z,21.43
2018-09-23T10:46:53.673Z,21.54
2018-09-23T10:47:53.667Z,21.56
2018-09-23T10:48:53.696Z,21.60
2018-09-23T10:49:53.675Z,21.63
2018-09-23T10:50:53.690Z,21.62
2018-09-23T10:51:53.751Z,21.53
2018-09-23T10:52:53.738Z,21.56
2018-09-23T10:53:53.764Z,21.59
2018-09-23T10:54:53.750Z,21.60
2018-09-23T10:55:53.828Z,21.66
2018-09-23T10:56:53.758Z,21.72
2018-09-23T10:57:53.787Z,21.60
2018-09-23T10:58:53.805Z,21.59
2018-09-23T10:59:53.800Z,21.60
2018-09-23T11:00:53.947Z,21.65
2018-09-23T11:01:53.851Z,21.70
2018-09-23T11:02:53.978Z,21.69
2018-09-23T11:03:54.044Z,21.68
2018-09-23T11:04:53.876Z,21.75
2018-09-23T11:05:53.848Z,21.63
2018-09-23T11:06:53.942Z,21.69
2018-09-23T11:07:53.900Z,21.77
2018-09-23T11:08:54.573Z,21.68
2018-09-23T11:09:53.971Z,21.69
2018-09-23T11:10:53.916Z,21.65
2018-09-23T11:11:53.986Z,21.66
2018-09-23T11:12:53.969Z,21.63
2018-09-23T11:13:55.429Z,21.59
2018-09-23T11:14:53.982Z,21.59
2018-09-23T11:15:53.993Z,21.60
2018-09-23T11:16:54.000Z,21.59
2018-09-23T11:17:54.145Z,21.58
2018-09-23T11:18:54.064Z,21.53
2018-09-23T11:19:54.033Z,21.40
2018-09-23T11:20:54.078Z,21.41
2018-09-23T11:21:54.100Z,21.47
2018-09-23T11:22:54.115Z,21.44
2018-09-23T11:23:54.334Z,21.45
2018-09-23T11:24:54.178Z,21.43
2018-09-23T11:25:54.076Z,21.43
2018-09-23T11:26:54.136Z,21.37
2018-09-23T11:27:54.158Z,21.37
2018-09-23T11:28:54.232Z,21.35
2018-09-23T11:29:55.071Z,21.33
2018-09-23T11:30:54.146Z,21.32
2018-09-23T11:31:54.165Z,21.23
2018-09-23T11:32:54.207Z,21.33
2018-09-23T11:33:54.190Z,21.23
2018-09-23T11:34:54.185Z,21.20
2018-09-23T11:35:54.247Z,21.20
2018-09-23T11:36:54.255Z,21.28
2018-09-23T11:37:54.309Z,21.15
2018-09-23T11:38:54.301Z,21.11
2018-09-23T11:39:54.446Z,21.22
2018-09-23T11:40:54.346Z,21.19
2018-09-23T11:41:55.171Z,21.15
2018-09-23T11:42:54.370Z,21.08
2018-09-23T11:43:54.316Z,21.07
2018-09-23T11:44:54.389Z,21.11
2018-09-23T11:45:54.336Z,20.98
2018-09-23T11:46:54.351Z,21.04
2018-09-23T11:47:54.328Z,20.90
2018-09-23T11:48:54.338Z,20.93
2018-09-23T11:49:54.372Z,20.93
2018-09-23T11:50:54.439Z,20.95
2018-09-23T11:51:54.396Z,20.90
2018-09-23T11:52:55.275Z,20.90
2018-09-23T11:53:54.458Z,20.90
2018-09-23T11:54:54.428Z,20.77
2018-09-23T11:55:54.473Z,20.85
2018-09-23T11:56:54.455Z,20.75
2018-09-23T11:57:54.505Z,20.73
2018-09-23T11:58:54.505Z,20.77
2018-09-23T11:59:54.645Z,20.74
2018-09-23T12:00:54.482Z,20.66
2018-09-23T12:01:54.636Z,20.70
2018-09-23T12:02:54.507Z,20.68
2018-09-23T12:03:54.487Z,20.64
2018-09-23T12:04:54.524Z,20.56
2018-09-23T12:05:54.545Z,20.56
2018-09-23T12:06:54.555Z,20.46
2018-09-23T12:07:54.657Z,20.49
2018-09-23T12:08:54.684Z,20.49
2018-09-23T12:09:54.636Z,20.48
2018-09-23T12:10:54.656Z,20.48
2018-09-23T12:11:54.608Z,20.53
2018-09-23T12:12:54.639Z,20.42
2018-09-23T12:13:54.639Z,20.46
2018-09-23T12:14:54.692Z,20.40
2018-09-23T12:15:54.734Z,20.36
2018-09-23T12:16:54.621Z,20.40
2018-09-23T12:17:54.690Z,20.37
2018-09-23T12:18:54.670Z,20.40
2018-09-23T12:19:54.773Z,20.24
2018-09-23T12:20:54.696Z,20.21
2018-09-23T12:21:54.704Z,20.33
2018-09-23T12:22:54.710Z,20.26
2018-09-23T12:23:54.753Z,20.26
2018-09-23T12:24:54.732Z,20.26
2018-09-23T12:25:54.756Z,20.21
2018-09-23T12:26:54.841Z,20.21
2018-09-23T12:27:54.740Z,20.15
2018-09-23T12:28:54.755Z,20.10
2018-09-23T12:29:54.768Z,20.18
2018-09-23T12:30:54.798Z,20.14
2018-09-23T12:31:54.810Z,20.08
2018-09-23T12:32:54.871Z,20.02
2018-09-23T12:33:54.817Z,19.97
2018-09-23T12:34:54.846Z,19.82
2018-09-23T12:35:54.840Z,19.78
2018-09-23T12:36:54.840Z,19.84
2018-09-23T12:37:54.896Z,19.74
2018-09-23T12:38:54.893Z,19.70
2018-09-23T12:39:54.918Z,19.71
2018-09-23T12:40:54.893Z,19.70
2018-09-23T12:41:54.919Z,19.57
2018-09-23T12:42:54.906Z,19.64
2018-09-23T12:43:54.993Z,19.57
2018-09-23T12:44:54.926Z,19.56
2018-09-23T12:45:55.082Z,19.41
2018-09-23T12:46:54.969Z,19.34
2018-09-23T12:47:54.960Z,19.30
2018-09-23T12:48:55.020Z,19.24
2018-09-23T12:49:54.967Z,19.27
2018-09-23T12:50:55.036Z,19.11
2018-09-23T12:51:54.996Z,18.91
2018-09-23T12:52:55.045Z,18.89